Flight Track Log - Related Links

Times and Time Zones

All times are in EDT time to prevent confusion due to time zone crossing. See the N729JB flight status page for this flight to view local times or setup timezone preferences in your user account.

Time Position Orientation Groundspeed Altitude Reporting Facility
EDT Latitude Longitude Course Direction KTS MPH feet Rate Location/Type
Thu 01:49:38 AM 33.4333 -112.0333 67° East 173 199 1,700  Level Phoenix TRACON
Thu 01:50:22 AM 33.4289 -112.0647 260° West 172 198 3,100 1,486 Climbing Albuquerque Center
Thu 01:51:23 AM 33.4222 -112.1400 264° West 228 262 4,300 2,083 Climbing Albuquerque Center
Thu 01:52:00 AM 33.5890 -111.5634 69° East  Level FlightAware Approximate
Thu 01:52:23 AM 33.4533 -112.2078 299° West 266 306 7,300  Level Albuquerque Center
Thu 01:53:00 AM 33.6365 -111.4144 69° East  Level FlightAware Approximate
Thu 01:53:24 AM 33.5064 -112.1569 39° Northeast 279 321 10,000  Level Albuquerque Center
Thu 01:54:00 AM 33.6838 -111.2654 67° East  Level FlightAware Approximate
Thu 01:54:25 AM 33.5275 -112.0558 76° East 315 362 11,300  Level Albuquerque Center
Thu 01:55:25 AM 33.5547 -111.9392 74° East 365 420 13,400 2,182 Climbing Albuquerque Center
Thu 01:56:26 AM 33.5781 -111.8189 77° East 373 429 15,700 1,884 Climbing Albuquerque Center
Thu 01:57:26 AM 33.6094 -111.6667 76° East 398 458 17,200 1,388 Climbing Albuquerque Center
Thu 01:58:27 AM 33.6375 -111.5267 76° East 433 498 18,500 1,377 Climbing Albuquerque Center
Thu 01:59:28 AM 33.6667 -111.3808 76° East 452 520 20,000 1,537 Climbing Albuquerque Center
Thu 02:00:28 AM 33.7017 -111.2289 74° East 470 541 21,600 1,537 Climbing Albuquerque Center
Thu 02:01:29 AM 33.7531 -111.0850 67° East 474 545 23,100 1,230 Climbing Albuquerque Center
Thu 02:02:30 AM 33.8050 -110.9386 67° East 484 557 24,100 984 Climbing Albuquerque Center
Thu 02:03:31 AM 33.8589 -110.7872 67° East 499 574 25,100 992 Climbing Albuquerque Center
Thu 02:04:31 AM 33.9139 -110.6308 67° East 513 590 26,100 893 Climbing Albuquerque Center
Thu 02:05:32 AM 33.9703 -110.4703 67° East 525 604 26,900 885 Climbing Albuquerque Center
Thu 02:06:33 AM 34.0294 -110.3006 67° East 534 615 27,900 893 Climbing Albuquerque Center
Thu 02:07:33 AM 34.0869 -110.1344 67° East 544 626 28,700 893 Climbing Albuquerque Center
Thu 02:08:34 AM 34.1539 -109.9406 67° East 555 639 29,700 1,131 Climbing Albuquerque Center
Thu 02:09:35 AM 34.2100 -109.7767 67° East 550 633 31,000 1,140 Climbing Albuquerque Center
Thu 02:10:35 AM 34.2653 -109.6136 68° East 549 632 32,000 893 Climbing Albuquerque Center
Thu 02:11:36 AM 34.3300 -109.4233 68° East 552 635 32,800 496 Climbing Albuquerque Center
Thu 02:12:36 AM 34.3858 -109.2578 68° East 554 638 33,000 198 Climbing Albuquerque Center
Thu 02:13:37 AM 34.4539 -109.1014 62° Northeast 549 632 33,200 443 Climbing Albuquerque Center
Thu 02:14:38 AM 34.5781 -108.9600 43° Northeast 551 634 33,900 397 Climbing Albuquerque Center
Thu 02:15:38 AM 34.6847 -108.8389 43° Northeast 548 631 34,000 50 Climbing Albuquerque Center
Thu 02:16:39 AM 34.7914 -108.7181 43° Northeast 548 631 34,000 50 Level Albuquerque Center
Thu 02:17:39 AM 34.9156 -108.5767 43° Northeast 548 631 34,100 50 Climbing Albuquerque Center
Thu 02:18:40 AM 35.0214 -108.4556 43° Northeast 545 627 34,100 246 Level Albuquerque Center
Thu 02:19:41 AM 35.1267 -108.3347 43° Northeast 544 626 34,600 443 Climbing Albuquerque Center
Thu 02:20:42 AM 35.2486 -108.1942 43° Northeast 538 619 35,000 198 Climbing Albuquerque Center
Thu 02:21:42 AM 35.3531 -108.0736 43° Northeast 544 626 35,000  Level Albuquerque Center
Thu 02:22:42 AM 35.4578 -107.9519 43° Northeast 543 625 35,000  Level Albuquerque Center
Thu 02:23:43 AM 35.5794 -107.8103 43° Northeast 540 621 35,000  Level Albuquerque Center
Thu 02:24:43 AM 35.6822 -107.6897 44° Northeast 534 615 35,000  Level Albuquerque Center
Thu 02:25:44 AM 35.7847 -107.5692 44° Northeast 534 615 35,000  Level Albuquerque Center
Thu 02:26:45 AM 35.9036 -107.4286 44° Northeast 530 610 35,000  Level Albuquerque Center
Thu 02:27:45 AM 36.0056 -107.3081 44° Northeast 530 610 35,000  Level Albuquerque Center
Thu 02:28:46 AM 36.1183 -107.1736 44° Northeast 530 610 35,000  Level Albuquerque Center
Thu 02:29:46 AM 36.2256 -107.0456 44° Northeast 534 615 35,000 50 Level Albuquerque Center
Thu 02:30:47 AM 36.3278 -106.9228 44° Northeast 534 615 35,100 50 Climbing Albuquerque Center
Thu 02:31:47 AM 36.4294 -106.8006 44° Northeast 531 611 35,100  Level Albuquerque Center
Thu 02:32:48 AM 36.5469 -106.6581 44° Northeast 526 605 35,100 -50 Level Albuquerque Center
Thu 02:33:48 AM 36.6461 -106.5378 44° Northeast 520 598 35,000 -50 Descending Albuquerque Center
Thu 02:34:49 AM 36.7447 -106.4175 44° Northeast 517 595 35,000  Level Albuquerque Center
Thu 02:35:51 AM 36.8594 -106.2786 44° Northeast 518 596 35,000 -49 Level Denver Center
Thu 02:36:52 AM 36.9672 -106.1458 45° Northeast 521 600 34,900  Descending Denver Center
Thu 02:37:52 AM 37.0572 -106.0344 45° Northeast 523 602 35,000 99 Climbing Denver Center
Thu 02:38:53 AM 37.1731 -105.8906 45° Northeast 524 603 35,100 50 Climbing Denver Center
Thu 02:39:53 AM 37.2664 -105.7744 45° Northeast 525 604 35,100 -50 Level Denver Center
Thu 02:40:54 AM 37.3700 -105.6439 45° Northeast 517 595 35,000 -49 Descending Denver Center
Thu 02:41:55 AM 37.4844 -105.5014 45° Northeast 517 595 35,000  Level Denver Center
Thu 02:42:55 AM 37.5747 -105.3869 45° Northeast 512 589 35,000  Level Denver Center
Thu 02:43:56 AM 37.6872 -105.2453 45° Northeast 510 587 35,000  Level Denver Center
Thu 02:44:56 AM 37.7831 -105.1228 45° Northeast 509 586 35,000  Level Denver Center
Thu 02:45:57 AM 37.8781 -105.0006 45° Northeast 508 585 35,000  Level Denver Center
Thu 02:46:58 AM 37.9742 -104.8769 45° Northeast 511 588 35,000  Level Denver Center
Thu 02:47:58 AM 38.0881 -104.7308 45° Northeast 516 594 35,000  Level Denver Center
Thu 02:48:59 AM 38.1856 -104.6056 45° Northeast 519 597 35,000  Level Denver Center
Thu 02:49:59 AM 38.2828 -104.4781 46° Northeast 519 597 35,000  Level Denver Center
Thu 02:51:00 AM 38.3900 -104.3389 45° Northeast 523 602 35,000  Level Denver Center
Thu 02:52:00 AM 38.4925 -104.2058 45° Northeast 523 602 35,000  Level Denver Center
Thu 02:53:01 AM 38.5925 -104.0747 46° Northeast 522 601 35,000  Level Denver Center
Thu 02:54:02 AM 38.6878 -103.9475 46° Northeast 517 595 35,000  Level Denver Center
Thu 02:55:02 AM 38.8008 -103.7989 46° Northeast 518 596 35,000  Level Denver Center
Thu 02:56:03 AM 38.8961 -103.6719 46° Northeast 515 593 35,000  Level Denver Center
Thu 02:57:03 AM 38.9958 -103.5394 46° Northeast 513 590 35,000  Level Denver Center
Thu 02:58:04 AM 39.0947 -103.4053 46° Northeast 513 590 35,000  Level Denver Center
Thu 02:59:04 AM 39.1944 -103.2703 46° Northeast 517 595 35,000  Level Denver Center
Thu 03:00:06 AM 39.2953 -103.1342 46° Northeast 521 600 35,000  Level Denver Center
Thu 03:01:06 AM 39.3950 -102.9975 47° Northeast 520 598 35,000  Level Denver Center
Thu 03:02:07 AM 39.4964 -102.8603 46° Northeast 523 602 35,000  Level Denver Center
Thu 03:03:07 AM 39.5978 -102.7219 46° Northeast 524 603 35,000  Level Denver Center
Thu 03:04:08 AM 39.7056 -102.5722 47° Northeast 524 603 35,000  Level Denver Center
Thu 03:05:08 AM 39.8008 -102.4397 47° Northeast 524 603 35,000  Level Denver Center
Thu 03:06:09 AM 39.8967 -102.3053 47° Northeast 526 605 35,000  Level Denver Center
Thu 03:07:09 AM 40.0089 -102.1494 47° Northeast 529 609 35,000  Level Denver Center
Thu 03:08:10 AM 40.1050 -102.0142 47° Northeast 530 610 35,000  Level Denver Center
Thu 03:09:10 AM 40.2011 -101.8783 47° Northeast 532 612 35,000  Level Denver Center
Thu 03:10:11 AM 40.3133 -101.7197 47° Northeast 531 611 35,000  Level Denver Center
Thu 03:11:11 AM 40.4089 -101.5819 48° Northeast 533 613 35,000  Level Denver Center
Thu 03:12:12 AM 40.5061 -101.4431 47° Northeast 537 618 35,000  Level Denver Center
Thu 03:13:12 AM 40.6022 -101.3044 48° Northeast 536 617 35,000  Level Denver Center
Thu 03:14:25 AM 40.7300 -101.1203 47° Northeast 532 612 35,000  Level Denver Center
Thu 03:15:25 AM 40.8250 -100.9817 48° Northeast 530 610 35,000  Level Denver Center
Thu 03:16:26 AM 40.9214 -100.8414 48° Northeast 527 606 35,000  Level Denver Center
Thu 03:17:26 AM 41.0336 -100.6781 48° Northeast 526 605 35,000  Level Denver Center
Thu 03:18:27 AM 41.1272 -100.5392 48° Northeast 525 604 35,000  Level Denver Center
Thu 03:19:27 AM 41.2203 -100.4014 48° Northeast 523 602 35,000  Level Denver Center
Thu 03:20:28 AM 41.3128 -100.2622 48° Northeast 524 603 35,000  Level Denver Center
Thu 03:21:28 AM 41.4211 -100.1006 48° Northeast 524 603 35,000  Level Denver Center
Thu 03:22:29 AM 41.5139 -99.9617 48° Northeast 524 603 35,000  Level Denver Center
Thu 03:23:29 AM 41.6056 -99.8228 49° Northeast 522 601 35,000  Level Denver Center
Thu 03:24:29 AM 41.7008 -99.6783 49° Northeast 520 598 35,000  Level Denver Center
Thu 03:25:30 AM 41.7775 -99.5589 49° Northeast 523 602 35,000  Level Denver Center
Thu 03:26:30 AM 41.8942 -99.3800 49° Northeast 527 606 35,000  Level Denver Center
Thu 03:27:31 AM 41.9903 -99.2317 49° Northeast 525 604 35,000 57 Level Denver Center
Thu 03:28:16 AM 42.0686 -99.1119 49° Northeast 519 597 35,100  Climbing Minneapolis Center
Thu 03:29:16 AM 42.1631 -98.9653 49° Northeast 515 593 35,000 -50 Descending Minneapolis Center
Thu 03:30:16 AM 42.2564 -98.8186 49° Northeast 513 590 35,000  Level Minneapolis Center
Thu 03:31:17 AM 42.3506 -98.6708 49° Northeast 518 596 35,000  Level Minneapolis Center
Thu 03:32:17 AM 42.4261 -98.5517 49° Northeast 520 598 35,000  Level Minneapolis Center
Thu 03:33:17 AM 42.5392 -98.3719 49° Northeast 522 601 35,000  Level Minneapolis Center
Thu 03:34:18 AM 42.6336 -98.2214 50° Northeast 524 603 35,000 50 Level Minneapolis Center
Thu 03:35:18 AM 42.7314 -98.0644 50° Northeast 522 601 35,100  Climbing Minneapolis Center
Thu 03:36:18 AM 42.8244 -97.9144 50° Northeast 518 596 35,000 -50 Descending Minneapolis Center
Thu 03:37:19 AM 42.9167 -97.7650 50° Northeast 517 595 35,000  Level Minneapolis Center
Thu 03:38:19 AM 43.0089 -97.6147 50° Northeast 519 597 35,000  Level Minneapolis Center
Thu 03:39:19 AM 43.1014 -97.4633 50° Northeast 522 601 35,000  Level Minneapolis Center
Thu 03:40:20 AM 43.1944 -97.3100 50° Northeast 526 605 35,000  Level Minneapolis Center
Thu 03:41:20 AM 43.2875 -97.1558 50° Northeast 527 606 35,000  Level Minneapolis Center
Thu 03:42:20 AM 43.3806 -97.0008 50° Northeast 529 609 35,000  Level Minneapolis Center
Thu 03:43:20 AM 43.4739 -96.8444 51° Northeast 533 613 35,000  Level Minneapolis Center
Thu 03:44:21 AM 43.5681 -96.6864 51° Northeast 537 618 35,000 50 Level Minneapolis Center
Thu 03:45:21 AM 43.6622 -96.5275 51° Northeast 536 617 35,100 50 Climbing Minneapolis Center
Thu 03:46:21 AM 43.7550 -96.3694 51° Northeast 532 612 35,100 -50 Level Minneapolis Center
Thu 03:47:22 AM 43.8464 -96.2128 51° Northeast 528 608 35,000 -50 Descending Minneapolis Center
Thu 03:48:22 AM 43.9369 -96.0572 51° Northeast 526 605 35,000  Level Minneapolis Center
Thu 03:49:22 AM 44.0272 -95.9011 51° Northeast 529 609 35,000  Level Minneapolis Center
Thu 03:50:23 AM 44.1183 -95.7428 51° Northeast 536 617 35,000  Level Minneapolis Center
Thu 03:51:23 AM 44.2111 -95.5808 51° Northeast 542 624 35,000  Level Minneapolis Center
Thu 03:52:23 AM 44.2961 -95.4119 55° Northeast 525 604 35,000 50 Level Minneapolis Center
Thu 03:53:23 AM 44.3217 -95.1894 81° East 478 550 35,100  Climbing Minneapolis Center
Thu 03:54:24 AM 44.3339 -95.0042 85° East 480 552 35,000 -50 Descending Minneapolis Center
Thu 03:55:24 AM 44.3453 -94.8192 85° East 481 554 35,000  Level Minneapolis Center
Thu 03:56:24 AM 44.3564 -94.6331 85° East 483 556 35,000  Level Minneapolis Center
Thu 03:57:25 AM 44.3661 -94.4667 85° East 487 560 35,000  Level Minneapolis Center
Thu 03:58:25 AM 44.3767 -94.2811 85° East 490 564 35,000  Level Minneapolis Center
Thu 03:59:25 AM 44.3872 -94.0922 85° East 491 565 35,000  Level Minneapolis Center
Thu 04:00:26 AM 44.3972 -93.9042 86° East 488 562 35,000  Level Minneapolis Center
Thu 04:01:26 AM 44.4069 -93.7178 86° East 484 557 35,000  Level Minneapolis Center
Thu 04:02:26 AM 44.4161 -93.5319 86° East 486 559 35,000  Level Minneapolis Center
Thu 04:03:26 AM 44.4269 -93.3086 86° East 489 563 35,000  Level Minneapolis Center
Thu 04:04:27 AM 44.4358 -93.1206 86° East 494 568 35,000  Level Minneapolis Center
Thu 04:05:27 AM 44.4444 -92.9308 86° East 498 573 35,000  Level Minneapolis Center
Thu 04:06:27 AM 44.4528 -92.7392 86° East 500 575 35,000  Level Minneapolis Center
Thu 04:07:28 AM 44.4608 -92.5469 87° East 499 574 35,000  Level Minneapolis Center
Thu 04:08:28 AM 44.4683 -92.3569 87° East 488 562 35,000  Level Minneapolis Center
Thu 04:09:28 AM 44.4756 -92.1708 87° East 481 554 35,000  Level Minneapolis Center
Thu 04:10:29 AM 44.4825 -91.9856 87° East 478 550 35,000  Level Minneapolis Center
Thu 04:11:29 AM 44.4889 -91.7983 87° East 487 560 35,000  Level Minneapolis Center
Thu 04:12:29 AM 44.4950 -91.6106 87° East 486 559 35,000  Level Minneapolis Center
Thu 04:13:30 AM 44.5011 -91.4231 87° East 485 558 35,000 50 Level Minneapolis Center
Thu 04:14:30 AM 44.5067 -91.2367 88° East 479 551 35,100  Climbing Minneapolis Center
Thu 04:15:31 AM 44.5122 -91.0528 88° East 473 544 35,000 -50 Descending Minneapolis Center
Thu 04:16:31 AM 44.5172 -90.8650 88° East 470 541 35,000  Level Minneapolis Center
Thu 04:17:33 AM 44.5225 -90.6514 88° East 472 543 35,000  Level Minneapolis Center
Thu 04:18:34 AM 44.5267 -90.4658 88° East 477 549 35,000  Level Minneapolis Center
Thu 04:19:34 AM 44.5308 -90.2775 88° East 485 558 35,000  Level Minneapolis Center
Thu 04:20:34 AM 44.5347 -90.0869 88° East 489 563 35,000 50 Level Minneapolis Center
Thu 04:21:35 AM 44.5381 -89.8956 89° East 490 564 35,100  Climbing Minneapolis Center
Thu 04:22:35 AM 44.5414 -89.7050 89° East 490 564 35,000 -50 Descending Minneapolis Center
Thu 04:23:35 AM 44.5442 -89.5136 89° East 490 564 35,000  Level Minneapolis Center
Thu 04:24:36 AM 44.5467 -89.3217 89° East 491 565 35,000  Level Minneapolis Center
Thu 04:25:36 AM 44.5489 -89.1286 89° East 496 571 35,000  Level Minneapolis Center
Thu 04:26:37 AM 44.5511 -88.9322 89° East 503 579 35,000  Level Minneapolis Center
Thu 04:27:37 AM 44.5528 -88.7367 89° East 499 574 35,000  Level Minneapolis Center
Thu 04:28:37 AM 44.5539 -88.5422 89° East 496 571 35,000  Level Minneapolis Center
Thu 04:29:38 AM 44.5547 -88.3481 90° East 497 572 35,000  Level Minneapolis Center
Thu 04:30:38 AM 44.5447 -88.1569 94° East 485 558 35,000  Level Minneapolis Center
Thu 04:31:39 AM 44.5119 -87.9761 104° East 476 548 35,000  Level Minneapolis Center
Thu 04:32:39 AM 44.4775 -87.8006 105° East 475 547 35,000  Level Minneapolis Center
Thu 04:33:39 AM 44.4408 -87.6186 106° East 475 547 35,000  Level Minneapolis Center
Thu 04:34:40 AM 44.4047 -87.4394 106° East 478 550 35,000  Level Minneapolis Center
Thu 04:35:40 AM 44.3678 -87.2597 106° East 481 554 35,000  Level Minneapolis Center
Thu 04:36:41 AM 44.3328 -87.0883 106° East 483 556 35,000  Level Minneapolis Center
Thu 04:37:41 AM 44.2956 -86.9094 106° East 484 557 35,000  Level Minneapolis Center
Thu 04:38:41 AM 44.2578 -86.7300 106° East 486 559 35,000  Level Minneapolis Center
Thu 04:39:42 AM 44.2197 -86.5506 106° East 487 560 35,000  Level Minneapolis Center
Thu 04:40:42 AM 44.1817 -86.3719 106° East 486 559 35,000  Level Minneapolis Center
Thu 04:41:43 AM 44.1433 -86.1933 107° East 487 560 35,000  Level Minneapolis Center
Thu 04:42:43 AM 44.1044 -86.0142 107° East 488 562 35,000  Level Minneapolis Center
Thu 04:43:44 AM 44.0669 -85.8431 107° East 492 566 35,000  Level Minneapolis Center
Thu 04:44:44 AM 44.0267 -85.6603 107° East 495 570 35,000  Level Minneapolis Center
Thu 04:45:44 AM 43.9861 -85.4778 107° East 493 567 35,000  Level Minneapolis Center
Thu 04:46:45 AM 43.9450 -85.2956 107° East 494 568 35,000  Level Minneapolis Center
Thu 04:47:45 AM 43.9039 -85.1133 107° East 496 571 35,000  Level Minneapolis Center
Thu 04:48:46 AM 43.8536 -84.8939 108° East 497 572 35,000  Level Minneapolis Center
Thu 04:49:46 AM 43.8119 -84.7128 108° East 493 567 35,000  Level Minneapolis Center
Thu 04:50:47 AM 43.7700 -84.5331 108° East 489 563 35,000  Level Minneapolis Center
Thu 04:51:47 AM 43.7281 -84.3547 108° East 488 562 35,000 50 Level Minneapolis Center
Thu 04:52:48 AM 43.6864 -84.1769 108° East 489 563 35,100 496 Climbing Minneapolis Center
Thu 04:53:48 AM 43.6428 -83.9953 108° East 497 572 36,000 893 Climbing Minneapolis Center
Thu 04:54:49 AM 43.5997 -83.8150 108° East 495 570 36,900 698 Climbing Minneapolis Center
Thu 04:55:14 AM 43.5836 -83.7586 112° Southeast 492 566 37,000 71 Climbing Cleveland Center
Thu 04:56:14 AM 43.5406 -83.5786 108° East 492 566 37,000  Level Cleveland Center
Thu 04:57:14 AM 43.4950 -83.3961 109° East 492 566 37,000  Level Cleveland Center
Thu 04:58:14 AM 43.4514 -83.2142 108° East 492 566 37,000  Level Cleveland Center
Thu 04:59:14 AM 43.4036 -83.0178 108° East 492 566 37,000  Level Cleveland Center
Thu 05:00:14 AM 43.3592 -82.8417 109° East 492 566 37,000  Level Cleveland Center
Thu 05:01:14 AM 43.3125 -82.6603 109° East 492 566 37,000  Level Cleveland Center
Thu 05:02:14 AM 43.2678 -82.4792 109° East 492 566 37,000  Level Cleveland Center
Thu 05:03:23 AM 43.2000 -82.2667 114° Southeast 500 575 37,000  Level Toronto Center
Thu 05:04:23 AM 43.1500 -82.0833 110° East 500 575 37,000  Level Toronto Center
Thu 05:05:23 AM 43.1167 -81.9000 104° East 500 575 37,000  Level Toronto Center
Thu 05:06:23 AM 43.0667 -81.7333 112° Southeast 500 575 37,000  Level Toronto Center
Thu 05:07:23 AM 43.0167 -81.5500 110° East 490 564 37,000  Level Toronto Center
Thu 05:08:23 AM 42.9667 -81.3667 110° East 490 564 37,000  Level Toronto Center
Thu 05:09:23 AM 42.9167 -81.2000 112° Southeast 490 564 37,000  Level Toronto Center
Thu 05:10:23 AM 42.8667 -81.0167 110° East 490 564 37,000  Level Toronto Center
Thu 05:11:23 AM 42.8167 -80.8667 114° Southeast 490 564 37,000  Level Toronto Center
Thu 05:12:23 AM 42.7833 -80.6833 104° East 480 552 37,000  Level Toronto Center
Thu 05:13:23 AM 42.7500 -80.5167 105° East 480 552 37,000  Level Toronto Center
Thu 05:14:23 AM 42.6833 -80.3333 116° Southeast 490 564 37,000  Level Toronto Center
Thu 05:15:23 AM 42.6500 -80.1833 107° East 480 552 37,000  Level Toronto Center
Thu 05:16:23 AM 42.6000 -80.0000 110° East 480 552 37,000  Level Toronto Center
Thu 05:17:23 AM 42.5500 -79.8333 112° Southeast 480 552 37,000  Level Toronto Center
Thu 05:18:23 AM 42.5000 -79.6500 110° East 480 552 37,000  Level Toronto Center
Thu 05:19:23 AM 42.4500 -79.5000 114° Southeast 480 552 37,000  Level Toronto Center
Thu 05:20:23 AM 42.4000 -79.3167 110° East 480 552 37,000  Level Toronto Center
Thu 05:21:23 AM 42.3500 -79.1333 110° East 490 564 37,000  Level Toronto Center
Thu 05:22:23 AM 42.3000 -78.9833 114° Southeast 490 564 37,000  Level Toronto Center
Thu 05:23:23 AM 42.2167 -78.8500 130° Southeast 480 552 37,000  Level Toronto Center
Thu 05:24:23 AM 42.1000 -78.7500 148° Southeast 470 541 37,000  Level Toronto Center
Thu 05:25:23 AM 42.0500 -78.5833 112° Southeast 490 564 37,000  Level Toronto Center
Thu 05:26:23 AM 41.9833 -78.4167 118° Southeast 490 564 37,000  Level Toronto Center
Thu 05:26:57 AM 41.9911 -78.3639 79° East 471 542 37,000  Level New York Center
Thu 05:27:58 AM 41.9456 -78.1942 110° East 471 542 37,000  Level New York Center
Thu 05:28:58 AM 41.9039 -78.0250 108° East 476 548 37,000  Level New York Center
Thu 05:29:59 AM 41.8603 -77.8531 109° East 482 555 37,000  Level New York Center
Thu 05:31:00 AM 41.8136 -77.6867 111° Southeast 482 555 37,000  Level New York Center
Thu 05:32:00 AM 41.7694 -77.5153 109° East 482 555 37,000  Level New York Center
Thu 05:32:57 AM 41.7247 -77.3439 109° East 482 555 37,000  Level New York Center
Thu 05:33:58 AM 41.6800 -77.1756 110° East 482 555 37,000  Level New York Center
Thu 05:34:57 AM 41.6328 -77.0044 110° East 482 555 37,000  Level New York Center
Thu 05:35:59 AM 41.5875 -76.8339 109° East 482 555 37,000  Level New York Center
Thu 05:36:59 AM 41.5383 -76.6492 110° East 482 555 37,000 -347 Level New York Center
Thu 05:38:00 AM 41.4925 -76.4817 110° East 482 555 36,300 -700 Descending New York Center
Thu 05:38:59 AM 41.4572 -76.3458 109° East 482 555 35,600 -857 Descending New York Center
Thu 05:39:59 AM 41.4056 -76.1589 110° East 488 562 34,600 -1,220 Descending New York Center
Thu 05:40:57 AM 41.3586 -75.9922 111° Southeast 483 556 33,200 -1,983 Descending New York Center
Thu 05:42:00 AM 41.3136 -75.8314 110° East 471 542 30,600 -2,430 Descending New York Center
Thu 05:42:58 AM 41.2661 -75.6703 111° Southeast 466 536 28,300 -2,200 Descending New York Center
Thu 05:44:00 AM 41.2125 -75.5064 113° Southeast 466 536 26,200 -2,380 Descending New York Center
Thu 05:44:59 AM 41.1600 -75.3567 115° Southeast 455 524 23,500 -1,600 Descending New York Center
Thu 05:46:00 AM 41.1097 -75.2019 113° Southeast 449 517 23,000 -254 Descending New York Center
Thu 05:46:57 AM 41.0569 -75.0497 115° Southeast 449 517 23,000  Level New York Center
Thu 05:47:58 AM 41.0067 -74.8817 112° Southeast 449 517 23,000 -400 Level New York Center
Thu 05:48:57 AM 40.9808 -74.7208 102° East 449 517 22,200 -1,041 Descending New York Center
Thu 05:49:59 AM 41.0211 -74.5744 70° East 418 481 20,900 -595 Descending New York Center
Thu 05:50:58 AM 41.1003 -74.4469 50° Northeast 411 473 21,000  Climbing New York Center
Thu 05:51:58 AM 41.1108 -74.3017 84° East 404 465 20,900 -495 Descending New York Center
Thu 05:52:35 AM 41.0667 -74.2500 139° Southeast 364 419 20,200 -1,175 Descending New York TRACON
Thu 05:53:35 AM 40.9833 -74.1833 149° Southeast 346 398 19,000 -632 Descending New York TRACON
Thu 05:54:29 AM 40.9167 -74.1167 143° Southeast 352 405 19,000 -211 Level New York TRACON
Thu 05:55:29 AM 40.8333 -74.0500 149° Southeast 360 414 18,600 -1,150 Descending New York TRACON
Thu 05:56:29 AM 40.7500 -73.9667 143° Southeast 369 425 16,700 -1,842 Descending New York TRACON
Thu 05:57:23 AM 40.6667 -73.8833 143° Southeast 352 405 15,100 -1,895 Descending New York TRACON
Thu 05:58:23 AM 40.6000 -73.8167 143° Southeast 403 464 13,100 -2,095 Descending New York TRACON
Thu 05:59:29 AM 40.5000 -73.7333 148° Southeast 335 386 10,700 -1,762 Descending New York TRACON
Thu 06:00:29 AM 40.4833 -73.6333 102° East 314 361 9,400 -1,474 Descending New York TRACON
Thu 06:01:23 AM 40.5000 -73.5333 78° East 305 351 7,900 -1,789 Descending New York TRACON
Thu 06:02:23 AM 40.5167 -73.4333 78° East 291 335 6,000 -1,300 Descending New York TRACON
Thu 06:03:23 AM 40.5667 -73.3667 45° Northeast 256 295 5,300 -500 Descending New York TRACON
Thu 06:04:23 AM 40.6333 -73.3333 21° North 231 266 5,000 -167 Descending New York TRACON
Thu 06:05:11 AM 40.6833 -73.3333 360° North 232 267 5,000 -684 Level New York TRACON
Thu 06:06:17 AM 40.7333 -73.4000 315° West 238 274 3,700 -1,000 Descending New York TRACON
Thu 06:07:05 AM 40.7833 -73.4500 323° Northwest 237 273 3,100 -368 Descending New York TRACON
Thu 06:08:11 AM 40.8167 -73.5167 303° West 216 249 3,000 -50 Descending New York TRACON
Thu 06:09:05 AM 40.8333 -73.5833 288° West 208 239 3,000 -53 Level New York TRACON
Thu 06:10:05 AM 40.8333 -73.6500 270° West 175 201 2,900 -450 Descending New York TRACON
Thu 06:11:05 AM 40.8000 -73.6667 201° Southwest 151 174 2,100 -450 Descending New York TRACON
Thu 06:12:05 AM 40.7500 -73.6833 194° South 151 174 2,000 -150 Descending New York TRACON
Thu 06:13:05 AM 40.7167 -73.7167 217° Southwest 148 170 1,800 -200 Descending New York TRACON

Login

Don't have an account? Register now (free) for customized features, flight alerts, and more!